Time;durP1;ratioP1;P1;durP2;ratioP2;P2;SDS_P1;SDS_P2;PMS_P1;PMS_P2;Temp;Humidity;BMP_temperature;BMP_pressure;BME280_temperature;BME280_humidity;BME280_pressure;Samples;Min_cycle;Max_cycle;Signal;HPM_P1;HPM_P2
2022/09/26 00:01:23;;;;;;;13.35;12.05;;;5.50;99.90;;;;;;5004525;28;20046;-74
2022/09/26 00:03:56;;;;;;;12.93;11.80;;;5.60;99.90;;;;;;5006138;28;20044;-75
2022/09/26 00:06:24;;;;;;;13.40;12.20;;;5.60;99.90;;;;;;4985552;28;20038;-75
2022/09/26 00:08:52;;;;;;;14.52;11.63;;;5.70;99.90;;;;;;4988708;28;20577;-75
2022/09/26 00:11:22;;;;;;;14.00;11.35;;;5.70;99.90;;;;;;4983046;28;20053;-73
2022/09/26 00:13:52;;;;;;;13.20;11.80;;;5.80;99.90;;;;;;5006224;28;20476;-74
2022/09/26 00:16:19;;;;;;;12.48;11.10;;;5.90;99.90;;;;;;4979612;28;20037;-73
2022/09/26 00:18:48;;;;;;;12.68;11.32;;;5.90;99.90;;;;;;4981323;28;20062;-72
2022/09/26 00:21:16;;;;;;;13.75;11.40;;;5.70;99.90;;;;;;4997676;28;20046;-73
2022/09/26 00:23:43;;;;;;;14.07;11.40;;;5.60;99.90;;;;;;4987046;28;20076;-72
2022/09/26 00:26:11;;;;;;;14.18;11.95;;;5.60;99.90;;;;;;4980442;28;20049;-73
2022/09/26 00:28:38;;;;;;;13.65;11.48;;;5.70;99.90;;;;;;4990446;28;20041;-75
2022/09/26 00:31:11;;;;;;;14.43;11.73;;;5.70;99.90;;;;;;4978036;28;20319;-74
2022/09/26 00:33:39;;;;;;;12.57;11.23;;;5.80;99.90;;;;;;4983745;28;20484;-74
2022/09/26 00:36:06;;;;;;;12.75;10.25;;;6.00;99.90;;;;;;4984239;28;20046;-73
2022/09/26 00:38:33;;;;;;;18.65;10.32;;;6.10;99.90;;;;;;4988371;28;20045;-71
2022/09/26 00:41:01;;;;;;;11.52;10.02;;;6.10;99.90;;;;;;4997424;28;20145;-72
2022/09/26 00:43:40;;;;;;;16.15;9.88;;;6.20;99.90;;;;;;4969255;28;20511;-72
2022/09/26 00:46:35;;;;;;;14.70;9.55;;;6.20;99.90;;;;;;5004163;28;20418;-73
2022/09/26 00:49:24;;;;;;;12.05;9.77;;;6.30;99.90;;;;;;4974355;28;20049;-73
2022/09/26 00:52:07;;;;;;;12.75;9.50;;;6.50;99.90;;;;;;4981842;28;20064;-72
2022/09/26 00:54:37;;;;;;;10.90;9.60;;;6.40;99.90;;;;;;4969104;28;20053;-72
2022/09/26 00:57:10;;;;;;;13.20;10.20;;;6.30;99.90;;;;;;4999574;28;20059;-71
2022/09/26 00:59:45;;;;;;;10.18;9.07;;;6.40;99.90;;;;;;4990285;28;20136;-72
2022/09/26 01:02:12;;;;;;;11.88;10.05;;;6.30;99.90;;;;;;5031179;23;20557;-74
2022/09/26 01:04:41;;;;;;;12.48;10.07;;;6.40;99.90;;;;;;5003789;28;20048;-74
2022/09/26 01:07:15;;;;;;;10.73;9.52;;;6.30;99.90;;;;;;5015104;28;20041;-76
2022/09/26 01:09:42;;;;;;;10.55;9.73;;;6.30;99.90;;;;;;5016981;28;20037;-74
2022/09/26 01:12:09;;;;;;;12.23;10.57;;;6.20;99.90;;;;;;5015118;28;20030;-74
2022/09/26 01:14:39;;;;;;;10.93;9.75;;;6.10;99.90;;;;;;5013986;28;20072;-74
2022/09/26 01:17:07;;;;;;;12.10;10.77;;;6.10;99.90;;;;;;5011706;28;20402;-74
2022/09/26 01:19:43;;;;;;;14.43;10.98;;;6.00;99.90;;;;;;5006464;28;20100;-74
2022/09/26 01:22:42;;;;;;;16.73;11.70;;;6.20;99.90;;;;;;5005621;28;20051;-74
2022/09/26 01:25:17;;;;;;;13.50;11.05;;;6.10;99.90;;;;;;5023949;28;20041;-74
2022/09/26 01:28:04;;;;;;;13.75;11.10;;;6.20;99.90;;;;;;5013498;28;20049;-74
2022/09/26 01:30:41;;;;;;;13.30;10.73;;;6.20;99.90;;;;;;5019141;28;20050;-73
2022/09/26 01:33:27;;;;;;;14.10;10.55;;;6.10;99.90;;;;;;5020189;28;20521;-76
2022/09/26 01:36:25;;;;;;;17.08;11.07;;;6.10;99.90;;;;;;5027620;28;20563;-74
2022/09/26 01:39:01;;;;;;;12.15;10.88;;;6.20;99.90;;;;;;5030043;28;20480;-73
2022/09/26 01:41:38;;;;;;;12.43;11.18;;;6.20;99.90;;;;;;5015545;28;20472;-73
2022/09/26 01:44:32;;;;;;;17.25;12.45;;;6.20;99.90;;;;;;5050622;28;20140;-73
2022/09/26 01:47:03;;;;;;;13.18;11.20;;;6.30;99.90;;;;;;5004091;28;20042;-73
2022/09/26 01:49:36;;;;;;;16.48;11.18;;;6.40;99.90;;;;;;5015562;28;20151;-73
2022/09/26 01:52:16;;;;;;;17.73;11.63;;;6.40;99.90;;;;;;5015533;28;20033;-74
2022/09/26 01:55:13;;;;;;;18.67;11.98;;;6.50;99.90;;;;;;5013574;28;20037;-74
2022/09/26 01:57:50;;;;;;;19.30;13.50;;;6.60;99.90;;;;;;5017461;28;20127;-74
2022/09/26 02:00:18;;;;;;;18.02;11.60;;;6.60;99.90;;;;;;5011516;28;20060;-74
2022/09/26 02:02:47;;;;;;;12.38;10.55;;;6.60;99.90;;;;;;4986898;28;20041;-74
2022/09/26 02:05:32;;;;;;;14.90;10.98;;;6.60;99.90;;;;;;5027622;28;20551;-74
2022/09/26 02:08:13;;;;;;;14.20;10.90;;;6.60;99.90;;;;;;5025048;28;20045;-74
2022/09/26 02:10:48;;;;;;;13.00;10.88;;;6.40;99.90;;;;;;5003147;28;20057;-74
2022/09/26 02:13:30;;;;;;;14.73;10.98;;;6.40;99.90;;;;;;5018196;28;20044;-74
2022/09/26 02:16:03;;;;;;;11.35;9.90;;;6.50;99.90;;;;;;5032602;28;21256;-76
2022/09/26 02:18:41;;;;;;;11.57;9.82;;;6.40;99.90;;;;;;5026274;28;20426;-73
2022/09/26 02:21:16;;;;;;;11.40;10.10;;;6.40;99.90;;;;;;5009172;28;20037;-73
2022/09/26 02:23:43;;;;;;;11.55;10.38;;;6.50;99.90;;;;;;5009851;28;20041;-73
2022/09/26 02:26:10;;;;;;;12.15;10.60;;;6.40;99.90;;;;;;5015525;28;20107;-73
2022/09/26 02:28:36;;;;;;;13.32;11.00;;;6.40;99.90;;;;;;5032037;28;20467;-74
2022/09/26 02:31:07;;;;;;;12.30;9.80;;;6.40;99.90;;;;;;5015890;28;20080;-74
2022/09/26 02:33:35;;;;;;;11.35;10.25;;;6.30;99.90;;;;;;5018677;28;20037;-73
2022/09/26 02:36:05;;;;;;;15.38;11.20;;;6.40;99.90;;;;;;5027107;28;20159;-74
2022/09/26 02:38:33;;;;;;;14.93;11.05;;;6.40;99.90;;;;;;5006007;28;20053;-73
2022/09/26 02:41:33;;;;;;;11.68;10.27;;;6.40;99.90;;;;;;5037205;28;20123;-73
2022/09/26 02:44:08;;;;;;;13.18;10.77;;;6.50;99.90;;;;;;5030370;28;20045;-73
2022/09/26 02:46:50;;;;;;;13.25;10.57;;;6.50;99.90;;;;;;5026507;28;20064;-74
2022/09/26 02:50:01;;;;;;;14.00;10.80;;;6.50;99.90;;;;;;5020586;28;20693;-74
2022/09/26 02:52:42;;;;;;;11.15;10.05;;;6.60;99.90;;;;;;5017046;28;20052;-74
2022/09/26 02:55:23;;;;;;;12.70;10.50;;;6.70;99.90;;;;;;5027810;28;20045;-74
2022/09/26 02:58:35;;;;;;;15.70;11.18;;;6.70;99.90;;;;;;5033870;28;20045;-74
2022/09/26 03:01:24;;;;;;;15.38;10.63;;;6.70;99.90;;;;;;4992309;28;20049;-75
2022/09/26 03:04:04;;;;;;;13.55;10.45;;;6.70;99.90;;;;;;5015460;28;20422;-78
2022/09/26 03:06:38;;;;;;;11.63;10.05;;;6.80;99.90;;;;;;5038948;28;20052;-75
2022/09/26 03:09:06;;;;;;;13.77;10.00;;;6.80;99.90;;;;;;5006056;28;20061;-75
2022/09/26 03:11:34;;;;;;;11.70;10.07;;;6.80;99.90;;;;;;5011511;28;20469;-75
2022/09/26 03:14:02;;;;;;;12.10;10.70;;;6.80;99.90;;;;;;5022370;28;20037;-75
2022/09/26 03:16:34;;;;;;;13.48;11.32;;;6.90;99.90;;;;;;5054749;28;20041;-75
2022/09/26 03:19:06;;;;;;;16.88;10.70;;;6.90;99.90;;;;;;5008122;28;20139;-75
2022/09/26 03:21:33;;;;;;;19.63;11.05;;;6.80;99.90;;;;;;5018612;28;20128;-74
2022/09/26 03:24:04;;;;;;;14.90;10.55;;;6.80;99.90;;;;;;4998028;28;20819;-75
2022/09/26 03:26:33;;;;;;;14.68;11.50;;;6.90;99.90;;;;;;5033348;28;20128;-75
2022/09/26 03:29:02;;;;;;;15.02;11.57;;;6.90;99.90;;;;;;5015456;28;20095;-79
2022/09/26 03:31:31;;;;;;;13.07;11.38;;;7.00;99.90;;;;;;5015787;28;20538;-75
2022/09/26 03:34:00;;;;;;;13.55;10.63;;;7.10;99.90;;;;;;5007036;28;20063;-75
2022/09/26 03:36:28;;;;;;;18.23;13.50;;;7.00;99.90;;;;;;5019363;28;20122;-77
2022/09/26 03:38:55;;;;;;;17.08;13.13;;;7.30;99.90;;;;;;5032598;28;20069;-75
2022/09/26 03:41:33;;;;;;;22.10;15.45;;;7.40;99.90;;;;;;5014480;28;20040;-77
2022/09/26 03:44:24;;;;;;;25.55;15.52;;;7.40;99.90;;;;;;5007425;28;20053;-75
2022/09/26 03:47:03;;;;;;;18.70;13.45;;;7.20;99.90;;;;;;5019711;28;20052;-75
2022/09/26 03:49:33;;;;;;;20.58;14.55;;;7.30;99.90;;;;;;5021117;28;20045;-75
2022/09/26 03:52:01;;;;;;;22.25;15.80;;;7.40;99.90;;;;;;5021445;28;20086;-75
2022/09/26 03:54:28;;;;;;;25.45;16.35;;;7.40;99.90;;;;;;5013876;28;20145;-75
2022/09/26 03:56:56;;;;;;;27.70;16.88;;;7.50;99.90;;;;;;5000375;28;20048;-75
2022/09/26 03:59:23;;;;;;;24.13;16.35;;;7.50;99.90;;;;;;5006653;28;20060;-75
2022/09/26 04:01:50;;;;;;;24.00;16.27;;;7.40;99.90;;;;;;5033812;28;20037;-77
2022/09/26 04:04:17;;;;;;;25.23;16.20;;;7.50;99.90;;;;;;5020443;28;20057;-74
2022/09/26 04:06:44;;;;;;;25.45;17.60;;;7.60;99.90;;;;;;5016595;28;20099;-75
2022/09/26 04:09:12;;;;;;;24.63;16.02;;;7.60;99.90;;;;;;5020095;28;20060;-74
2022/09/26 04:11:46;;;;;;;27.60;18.10;;;7.80;99.90;;;;;;5021084;28;20037;-76
2022/09/26 04:14:13;;;;;;;25.55;18.75;;;7.80;99.90;;;;;;5045791;28;20044;-75
2022/09/26 04:16:41;;;;;;;20.35;17.67;;;7.90;99.90;;;;;;5013636;28;20033;-75
2022/09/26 04:19:21;;;;;;;25.95;17.45;;;8.10;99.90;;;;;;5018572;28;20067;-74
2022/09/26 04:21:51;;;;;;;22.20;14.27;;;8.00;99.90;;;;;;5021459;28;20135;-75
2022/09/26 04:24:20;;;;;;;25.70;17.55;;;8.00;99.90;;;;;;5034190;28;20056;-75
2022/09/26 04:26:47;;;;;;;25.75;19.30;;;8.00;99.90;;;;;;5017574;28;20044;-75
2022/09/26 04:29:14;;;;;;;24.60;15.82;;;8.10;99.90;;;;;;5034369;28;20449;-75
2022/09/26 04:32:05;;;;;;;21.85;16.40;;;8.20;99.90;;;;;;5011722;28;20042;-75
2022/09/26 04:34:50;;;;;;;;;;;8.40;99.90;;;;;;5022329;28;20080;-75
2022/09/26 04:37:19;;;;;;;22.73;16.05;;;8.50;99.90;;;;;;5023244;28;20420;-75
2022/09/26 04:39:47;;;;;;;21.45;16.77;;;8.60;99.90;;;;;;5013232;28;20045;-74
2022/09/26 04:42:13;;;;;;;21.05;16.60;;;8.70;99.90;;;;;;5001552;28;20065;-75
2022/09/26 04:44:40;;;;;;;19.00;15.95;;;8.80;99.90;;;;;;5019514;28;20045;-75
2022/09/26 04:47:07;;;;;;;22.48;16.50;;;8.90;99.90;;;;;;5016072;28;20124;-74
2022/09/26 04:49:57;;;;;;;20.40;15.30;;;9.00;99.90;;;;;;5021335;28;20593;-77
2022/09/26 04:52:25;;;;;;;22.85;16.25;;;9.10;99.90;;;;;;5028833;28;20053;-74
2022/09/26 04:54:52;;;;;;;20.88;16.33;;;9.20;99.90;;;;;;5007365;28;20033;-75
2022/09/26 04:57:18;;;;;;;20.95;16.45;;;9.20;99.90;;;;;;5031830;28;20431;-74
2022/09/26 04:59:46;;;;;;;20.27;17.35;;;9.30;99.90;;;;;;5034891;28;20049;-75
2022/09/26 05:02:13;;;;;;;19.70;16.88;;;9.40;99.90;;;;;;5010866;28;20111;-74
2022/09/26 05:04:41;;;;;;;20.23;17.45;;;9.40;99.90;;;;;;5010914;28;20047;-75
2022/09/26 05:07:08;;;;;;;23.42;18.50;;;9.50;99.90;;;;;;5012321;28;20064;-75
2022/09/26 05:09:35;;;;;;;20.08;18.27;;;9.50;99.90;;;;;;5010097;28;20449;-74
2022/09/26 05:12:06;;;;;;;24.52;18.30;;;9.50;99.90;;;;;;5020768;28;20037;-74
2022/09/26 05:14:35;;;;;;;20.67;18.58;;;9.60;99.90;;;;;;5021808;28;20128;-78
2022/09/26 05:17:03;;;;;;;20.25;18.33;;;9.60;99.90;;;;;;5033917;28;20045;-74
2022/09/26 05:19:31;;;;;;;20.08;18.38;;;9.60;99.90;;;;;;5014128;28;20048;-75
2022/09/26 05:22:17;;;;;;;22.50;19.13;;;9.70;99.90;;;;;;5031976;28;20064;-75
2022/09/26 05:27:29;;;;;;;21.20;19.38;;;9.70;99.90;;;;;;5056433;28;20041;-74
2022/09/26 05:29:56;;;;;;;22.63;20.17;;;9.70;99.90;;;;;;5041326;28;20426;-74
2022/09/26 05:32:27;;;;;;;21.90;19.85;;;9.80;99.90;;;;;;5033363;28;20041;-75
2022/09/26 05:34:54;;;;;;;22.38;20.13;;;9.80;99.90;;;;;;5017487;28;20037;-77
2022/09/26 05:37:22;;;;;;;22.05;20.08;;;9.80;99.90;;;;;;5026251;28;20414;-75
2022/09/26 05:42:39;;;;;;;22.58;20.35;;;9.80;99.90;;;;;;5014350;28;20542;-74
2022/09/26 05:45:08;;;;;;;22.13;20.08;;;9.80;99.90;;;;;;5039206;28;20098;-74
2022/09/26 05:47:35;;;;;;;25.25;20.45;;;9.90;99.90;;;;;;5008382;28;20166;-76
2022/09/26 05:50:08;;;;;;;23.50;21.10;;;9.90;99.90;;;;;;5009917;28;20530;-77
2022/09/26 05:52:37;;;;;;;23.05;20.92;;;9.90;99.90;;;;;;5025159;28;20277;-75
2022/09/26 05:55:04;;;;;;;23.95;21.75;;;10.00;99.90;;;;;;5004956;28;20037;-74
2022/09/26 05:57:52;;;;;;;27.50;24.80;;;10.00;99.90;;;;;;5000367;28;20488;-76
2022/09/26 06:00:22;;;;;;;26.92;24.38;;;10.00;99.90;;;;;;5012872;28;20060;-77
2022/09/26 06:03:00;;;;;;;29.40;25.50;;;10.10;99.90;;;;;;5041890;28;20056;-76
2022/09/26 06:05:43;;;;;;;27.25;24.23;;;10.20;99.90;;;;;;5014169;28;20041;-76
2022/09/26 06:08:14;;;;;;;26.58;24.10;;;10.20;99.90;;;;;;5044078;28;20128;-76
2022/09/26 06:10:43;;;;;;;27.23;24.80;;;10.30;99.90;;;;;;5012817;28;20048;-75
2022/09/26 06:13:14;;;;;;;26.38;23.85;;;10.30;99.90;;;;;;5021347;28;20045;-76
2022/09/26 06:15:45;;;;;;;27.80;25.15;;;10.40;99.90;;;;;;5009174;28;20056;-73
2022/09/26 06:18:11;;;;;;;26.50;24.30;;;10.40;99.90;;;;;;5013889;28;20045;-76
2022/09/26 06:20:38;;;;;;;26.52;24.13;;;10.40;99.90;;;;;;5029741;28;20552;-76
2022/09/26 06:23:04;;;;;;;29.23;25.48;;;10.50;99.90;;;;;;5015115;28;20056;-77
2022/09/26 06:25:33;;;;;;;26.38;24.08;;;10.50;99.90;;;;;;5022356;28;20106;-76
2022/09/26 06:28:01;;;;;;;27.80;25.45;;;10.50;99.90;;;;;;5038845;28;20050;-76
2022/09/26 06:30:29;;;;;;;26.75;24.25;;;10.50;99.90;;;;;;5011018;28;20121;-75
2022/09/26 06:33:07;;;;;;;26.00;23.67;;;10.50;99.90;;;;;;5019634;28;20031;-76
2022/09/26 06:36:03;;;;;;;;;;;10.40;99.90;;;;;;5020272;28;20048;-76
2022/09/26 06:38:33;;;;;;;25.50;23.05;;;10.40;99.90;;;;;;5015685;28;19982;-76
2022/09/26 06:41:02;;;;;;;24.70;22.45;;;10.40;99.90;;;;;;5012388;28;20045;-76
2022/09/26 06:43:30;;;;;;;25.50;22.98;;;10.40;99.90;;;;;;5050763;28;20048;-75
2022/09/26 06:46:16;;;;;;;27.05;24.35;;;10.40;99.90;;;;;;5035758;28;20037;-76
2022/09/26 06:48:54;;;;;;;25.67;23.17;;;10.50;99.90;;;;;;5021711;28;20087;-76
2022/09/26 06:51:40;;;;;;;27.13;24.23;;;10.50;99.90;;;;;;5037226;28;20186;-75
2022/09/26 06:54:09;;;;;;;26.23;23.85;;;10.50;99.90;;;;;;5022046;28;20131;-76
2022/09/26 06:56:35;;;;;;;27.38;25.17;;;10.50;99.90;;;;;;5011899;28;20092;-76
2022/09/26 06:59:02;;;;;;;26.45;23.85;;;10.50;99.90;;;;;;5035617;28;20059;-75
2022/09/26 07:01:33;;;;;;;27.80;24.95;;;10.60;99.90;;;;;;5010508;28;20049;-75
2022/09/26 07:04:08;;;;;;;27.63;25.30;;;10.60;99.90;;;;;;5025335;28;20160;-76
2022/09/26 07:07:03;;;;;;;26.75;24.35;;;10.60;99.90;;;;;;5019224;28;20052;-76
2022/09/26 07:09:31;;;;;;;28.95;26.33;;;10.60;99.90;;;;;;5019587;28;20144;-76
2022/09/26 07:12:13;;;;;;;28.73;25.90;;;10.70;99.90;;;;;;5020081;28;20064;-76
2022/09/26 07:14:42;;;;;;;25.85;23.85;;;10.70;99.90;;;;;;5045605;28;20041;-75
2022/09/26 07:17:18;;;;;;;25.95;23.77;;;10.70;99.90;;;;;;5014455;28;20084;-75
2022/09/26 07:20:04;;;;;;;26.23;23.95;;;10.80;99.90;;;;;;5020176;28;20060;-76
2022/09/26 07:22:51;;;;;;;26.67;24.27;;;10.80;99.90;;;;;;5034258;28;20047;-76
2022/09/26 07:25:18;;;;;;;26.27;23.55;;;10.90;99.90;;;;;;5014515;28;20512;-76
2022/09/26 07:27:49;;;;;;;27.73;25.20;;;10.90;99.90;;;;;;5012259;28;20045;-76
2022/09/26 07:30:15;;;;;;;27.45;25.05;;;10.90;99.90;;;;;;5014951;28;20635;-76
2022/09/26 07:33:02;;;;;;;27.30;24.73;;;10.90;99.90;;;;;;5021449;28;20049;-77
2022/09/26 07:35:36;;;;;;;26.50;24.30;;;11.10;99.90;;;;;;5031923;28;20120;-76
2022/09/26 07:38:03;;;;;;;25.85;23.60;;;11.10;99.90;;;;;;5019273;28;20431;-75
2022/09/26 07:40:31;;;;;;;24.73;22.73;;;11.20;99.90;;;;;;5035277;28;20045;-75
2022/09/26 07:42:59;;;;;;;25.67;23.80;;;11.40;99.90;;;;;;5020361;28;20049;-76
2022/09/26 07:51:39;;;;;;;25.23;23.00;;;11.50;99.90;;;;;;5029846;28;20044;-76
2022/09/26 07:54:10;;;;;;;26.02;23.83;;;11.30;99.90;;;;;;5016338;28;20068;-75
2022/09/26 07:56:49;;;;;;;22.70;21.02;;;11.30;99.90;;;;;;5009156;28;20041;-76
2022/09/26 07:59:36;;;;;;;23.55;21.95;;;11.40;99.90;;;;;;5035958;28;20052;-76
2022/09/26 08:02:27;;;;;;;22.95;21.45;;;11.40;99.90;;;;;;5023981;28;20140;-76
2022/09/26 08:04:54;;;;;;;24.88;22.70;;;11.30;99.90;;;;;;5052417;28;20084;-76
2022/09/26 08:07:28;;;;;;;23.77;22.02;;;11.40;99.90;;;;;;5049883;28;20107;-77
2022/09/26 08:10:02;;;;;;;24.83;22.80;;;11.60;99.90;;;;;;5017607;28;20509;-76
2022/09/26 08:13:02;;;;;;;24.75;22.83;;;11.70;99.90;;;;;;5034412;28;20038;-76
2022/09/26 08:15:40;;;;;;;24.45;22.70;;;11.90;99.90;;;;;;5016635;28;20116;-76
2022/09/26 08:18:09;;;;;;;23.10;21.50;;;12.10;99.90;;;;;;5023468;28;20045;-76
2022/09/26 08:20:36;;;;;;;24.23;22.45;;;12.30;99.90;;;;;;5016703;28;20553;-75
2022/09/26 08:23:03;;;;;;;22.88;21.27;;;12.50;99.90;;;;;;5017351;28;20160;-75
2022/09/26 08:25:31;;;;;;;24.25;22.33;;;12.40;99.90;;;;;;5013483;28;20121;-75
2022/09/26 08:28:11;;;;;;;22.58;21.27;;;12.50;99.90;;;;;;5012309;28;20046;-76
2022/09/26 08:30:43;;;;;;;23.13;21.73;;;12.50;99.90;;;;;;5020257;28;20041;-76
2022/09/26 08:33:11;;;;;;;24.88;23.05;;;12.60;99.90;;;;;;5013839;28;20781;-76
2022/09/26 08:35:38;;;;;;;24.20;22.50;;;12.80;99.90;;;;;;5018927;28;20036;-76
2022/09/26 08:38:32;;;;;;;24.75;23.23;;;13.00;99.90;;;;;;4998395;28;20048;-76
2022/09/26 08:41:55;;;;;;;25.60;23.70;;;13.00;99.90;;;;;;5042233;28;20085;-76
2022/09/26 08:44:47;;;;;;;25.50;23.92;;;12.90;99.90;;;;;;5021219;28;20041;-76
2022/09/26 08:47:48;;;;;;;24.63;22.95;;;12.70;99.90;;;;;;5021221;28;20679;-76
2022/09/26 08:50:47;;;;;;;24.23;22.73;;;12.60;99.90;;;;;;5042198;28;20765;-76
2022/09/26 08:53:47;;;;;;;23.85;22.35;;;12.70;99.90;;;;;;5021276;28;20045;-75
2022/09/26 08:56:29;;;;;;;23.48;21.98;;;12.80;99.90;;;;;;5025515;28;20049;-75
2022/09/26 08:58:59;;;;;;;24.38;22.88;;;12.90;99.90;;;;;;5019450;28;20509;-75
2022/09/26 09:01:38;;;;;;;23.77;22.27;;;13.00;99.90;;;;;;5022040;23;20080;-73
2022/09/26 09:04:37;;;;;;;24.30;22.70;;;12.80;99.90;;;;;;4970188;28;20092;-72
2022/09/26 09:07:14;;;;;;;24.58;22.98;;;12.80;99.90;;;;;;4986061;28;20077;-72
2022/09/26 09:09:41;;;;;;;23.60;22.13;;;12.70;99.90;;;;;;4990523;28;20045;-72
2022/09/26 09:12:45;;;;;;;23.77;21.90;;;12.50;99.90;;;;;;5004351;28;20443;-72
2022/09/26 09:16:11;;;;;;;24.02;22.10;;;12.50;99.90;;;;;;4974097;28;20114;-73
2022/09/26 09:19:17;;;;;;;22.85;21.45;;;12.50;99.90;;;;;;4972579;28;20045;-72
2022/09/26 09:22:45;;;;;;;23.42;21.95;;;12.60;99.90;;;;;;5005497;28;20128;-74
2022/09/26 09:25:30;;;;;;;23.40;22.00;;;12.60;99.90;;;;;;4969560;28;20077;-73
2022/09/26 09:28:09;;;;;;;23.50;21.77;;;12.50;99.90;;;;;;4989597;28;20538;-73
2022/09/26 09:30:43;;;;;;;23.20;21.85;;;12.40;99.90;;;;;;4964088;28;20050;-74
2022/09/26 09:33:49;;;;;;;23.00;21.42;;;12.40;99.90;;;;;;4893021;29;20048;-73
2022/09/26 09:36:46;;;;;;;22.13;20.65;;;12.40;99.90;;;;;;4993894;28;20041;-73
2022/09/26 09:39:34;;;;;;;22.55;21.08;;;12.30;99.90;;;;;;4986349;28;20419;-72
2022/09/26 09:42:21;;;;;;;22.65;21.08;;;12.30;99.90;;;;;;5004534;28;20053;-72
2022/09/26 09:44:59;;;;;;;23.52;21.73;;;12.30;99.90;;;;;;4989754;28;20054;-73
2022/09/26 09:47:28;;;;;;;22.88;21.20;;;12.30;99.90;;;;;;4991203;28;20672;-73
2022/09/26 09:49:58;;;;;;;21.75;20.42;;;12.40;99.90;;;;;;4980073;28;20486;-73
2022/09/26 09:52:44;;;;;;;22.55;21.05;;;12.40;99.90;;;;;;4988461;28;21122;-72
2022/09/26 09:55:30;;;;;;;22.55;20.85;;;12.60;99.90;;;;;;4978263;28;20073;-73
2022/09/26 09:58:31;;;;;;;20.85;19.55;;;12.60;99.90;;;;;;4994130;28;20057;-72
2022/09/26 10:01:19;;;;;;;22.55;21.10;;;12.50;99.90;;;;;;4972093;28;20525;-73
2022/09/26 10:04:26;;;;;;;22.25;20.83;;;12.50;99.90;;;;;;4986928;28;20496;-73
2022/09/26 10:06:54;;;;;;;23.70;21.92;;;12.60;99.90;;;;;;4971395;28;20030;-72
2022/09/26 10:09:27;;;;;;;23.13;21.63;;;12.50;99.90;;;;;;4988184;28;20052;-71
2022/09/26 10:12:27;;;;;;;22.95;21.65;;;12.40;99.90;;;;;;5002833;28;20064;-72
2022/09/26 10:15:21;;;;;;;24.58;23.08;;;12.30;99.90;;;;;;4999278;28;20053;-73
2022/09/26 10:18:17;;;;;;;23.55;21.95;;;12.20;99.90;;;;;;4998364;28;20709;-72
2022/09/26 10:21:15;;;;;;;24.80;23.02;;;12.30;99.90;;;;;;4971412;28;20085;-73
2022/09/26 10:23:45;;;;;;;23.08;21.73;;;12.50;99.90;;;;;;4999095;28;20389;-71
2022/09/26 10:26:33;;;;;;;22.55;21.15;;;12.60;99.90;;;;;;4983240;28;20128;-72
2022/09/26 10:29:08;;;;;;;23.30;21.77;;;12.70;99.90;;;;;;4974884;28;20161;-72
2022/09/26 10:31:38;;;;;;;22.08;20.67;;;12.80;99.90;;;;;;4985656;28;20127;-73
2022/09/26 10:34:32;;;;;;;22.25;20.90;;;12.90;99.90;;;;;;4985184;28;20160;-72
2022/09/26 10:37:22;;;;;;;22.00;20.60;;;12.90;99.90;;;;;;4966941;28;20038;-73
2022/09/26 10:43:21;;;;;;;23.88;22.27;;;13.00;99.90;;;;;;4916677;29;20228;-74
2022/09/26 10:46:13;;;;;;;23.55;21.92;;;13.10;99.90;;;;;;4934236;29;20079;-72
2022/09/26 10:49:02;;;;;;;23.60;22.05;;;13.10;99.90;;;;;;5003292;28;20061;-73
2022/09/26 10:51:59;;;;;;;23.95;22.25;;;12.90;99.90;;;;;;5008918;28;20069;-73
2022/09/26 10:54:41;;;;;;;23.58;22.17;;;12.90;99.90;;;;;;4968934;28;20049;-72
2022/09/26 10:57:18;;;;;;;23.92;22.02;;;12.70;99.90;;;;;;4967391;28;20124;-74
2022/09/26 10:59:47;;;;;;;22.98;21.30;;;12.60;99.90;;;;;;4978589;28;20077;-72
2022/09/26 11:02:19;;;;;;;25.73;23.55;;;12.50;99.90;;;;;;4986482;28;20045;-71
2022/09/26 11:08:09;;;;;;;21.73;20.27;;;12.30;99.90;;;;;;4908474;29;20700;-72
2022/09/26 11:10:48;;;;;;;21.67;19.98;;;12.30;99.90;;;;;;4979367;28;20271;-72
2022/09/26 11:13:57;;;;;;;20.27;18.88;;;12.20;99.90;;;;;;4988489;28;20430;-73
2022/09/26 11:16:25;;;;;;;21.38;19.65;;;12.10;99.90;;;;;;4984507;28;21224;-73
2022/09/26 11:19:08;;;;;;;20.52;19.30;;;11.90;99.90;;;;;;4992859;28;20057;-73
2022/09/26 11:21:42;;;;;;;19.48;18.38;;;11.90;99.90;;;;;;4987619;28;20046;-73
2022/09/26 11:24:27;;;;;;;20.23;18.52;;;11.90;99.90;;;;;;4982617;28;20073;-73
2022/09/26 11:27:04;;;;;;;;;;;11.90;99.90;;;;;;4972575;28;20057;-72
2022/09/26 11:29:54;;;;;;;19.50;18.17;;;11.90;99.90;;;;;;4988646;28;20011;-73
2022/09/26 11:32:32;;;;;;;20.17;18.63;;;11.80;99.90;;;;;;4984471;28;20056;-73
2022/09/26 11:35:42;;;;;;;20.63;19.25;;;11.80;99.90;;;;;;5002588;28;20498;-73
2022/09/26 11:38:37;;;;;;;20.70;19.10;;;11.90;99.90;;;;;;4983546;28;20155;-73
2022/09/26 11:41:13;;;;;;;22.10;20.48;;;11.80;99.90;;;;;;4972141;28;20133;-72
2022/09/26 11:43:59;;;;;;;22.80;21.15;;;11.80;99.90;;;;;;4973347;28;20728;-72
2022/09/26 11:47:13;;;;;;;19.48;18.10;;;11.70;99.90;;;;;;4966898;28;20547;-73
2022/09/26 11:50:19;;;;;;;20.35;18.80;;;11.70;99.90;;;;;;4986648;28;20053;-73
2022/09/26 11:53:29;;;;;;;21.60;19.98;;;11.70;99.90;;;;;;4990008;28;20175;-72
2022/09/26 11:56:16;;;;;;;20.17;18.67;;;11.70;99.90;;;;;;4981352;28;20045;-73
2022/09/26 11:59:01;;;;;;;19.73;18.55;;;11.70;99.90;;;;;;5006103;28;20463;-73
2022/09/26 12:01:46;;;;;;;19.70;18.33;;;11.60;99.90;;;;;;4987998;28;20045;-74
2022/09/26 12:04:16;;;;;;;18.70;17.50;;;11.60;99.90;;;;;;4991320;28;20558;-74
2022/09/26 12:07:01;;;;;;;19.52;18.17;;;11.50;99.90;;;;;;4974239;28;20550;-74
2022/09/26 12:09:46;;;;;;;19.42;18.02;;;11.50;99.90;;;;;;4985517;28;20045;-74
2022/09/26 12:12:23;;;;;;;18.25;17.23;;;11.50;99.90;;;;;;4988149;28;20682;-75
2022/09/26 12:15:01;;;;;;;17.92;16.92;;;11.40;99.90;;;;;;4971589;28;20133;-74
2022/09/26 12:17:51;;;;;;;23.02;21.13;;;11.40;99.90;;;;;;4998186;28;20036;-75
2022/09/26 12:20:31;;;;;;;18.08;16.92;;;11.30;99.90;;;;;;4987825;28;20515;-75
2022/09/26 12:23:32;;;;;;;18.20;17.17;;;11.40;99.90;;;;;;4984850;28;20065;-74
2022/09/26 12:26:25;;;;;;;20.15;18.70;;;11.40;99.90;;;;;;4968134;28;20042;-75
2022/09/26 12:28:52;;;;;;;20.60;19.35;;;11.40;99.90;;;;;;4987117;28;20058;-75
2022/09/26 12:31:30;;;;;;;19.73;18.40;;;11.40;99.90;;;;;;4985016;28;20076;-73
2022/09/26 12:34:36;;;;;;;21.02;19.63;;;11.50;99.90;;;;;;4967827;28;20719;-72
2022/09/26 12:37:09;;;;;;;22.20;20.50;;;11.50;99.90;;;;;;4982946;28;20037;-76
2022/09/26 12:40:14;;;;;;;21.25;20.05;;;11.50;99.90;;;;;;4988729;28;20488;-73
2022/09/26 12:43:06;;;;;;;20.55;19.23;;;11.50;99.90;;;;;;4992495;28;20386;-73
2022/09/26 12:45:48;;;;;;;20.33;19.20;;;11.50;99.90;;;;;;4992978;28;20133;-74
2022/09/26 12:48:39;;;;;;;18.92;17.83;;;11.50;99.90;;;;;;4987404;28;20065;-74
2022/09/26 12:51:27;;;;;;;18.25;17.20;;;11.40;99.90;;;;;;5005277;28;20218;-73
2022/09/26 12:54:00;;;;;;;17.30;16.25;;;11.40;99.90;;;;;;5003064;28;20040;-73
2022/09/26 12:56:48;;;;;;;17.35;16.45;;;11.20;99.90;;;;;;4992944;28;21114;-73
2022/09/26 12:59:38;;;;;;;16.92;15.70;;;11.20;99.90;;;;;;4985182;28;20419;-74
2022/09/26 13:02:14;;;;;;;15.82;15.02;;;11.10;99.90;;;;;;5006497;28;20070;-74
2022/09/26 13:05:10;;;;;;;15.80;15.00;;;11.10;99.90;;;;;;4975812;28;20069;-73
2022/09/26 13:07:58;;;;;;;15.55;14.80;;;11.10;99.90;;;;;;5006547;28;20060;-74
2022/09/26 13:10:56;;;;;;;16.27;15.40;;;11.00;99.90;;;;;;5006254;28;21531;-73
2022/09/26 13:13:32;;;;;;;16.42;15.63;;;11.00;99.90;;;;;;4974621;28;20049;-73
2022/09/26 13:16:17;;;;;;;15.93;15.02;;;11.00;99.90;;;;;;4985984;28;20448;-74
2022/09/26 13:18:48;;;;;;;17.27;16.10;;;11.00;99.90;;;;;;4983635;28;20041;-73
2022/09/26 13:21:23;;;;;;;17.33;16.23;;;11.00;99.90;;;;;;4978095;28;20037;-74
2022/09/26 13:23:57;;;;;;;18.42;17.13;;;11.00;99.90;;;;;;4988090;28;20095;-72
2022/09/26 13:26:35;;;;;;;16.40;15.30;;;11.00;99.90;;;;;;4985061;28;20044;-72
2022/09/26 13:29:11;;;;;;;15.27;14.48;;;11.00;99.90;;;;;;4991551;28;20041;-74
2022/09/26 13:31:54;;;;;;;16.10;15.23;;;11.00;99.90;;;;;;4990740;28;20040;-74
2022/09/26 13:34:50;;;;;;;14.57;13.82;;;11.00;99.90;;;;;;4998817;28;20054;-73
2022/09/26 13:37:35;;;;;;;17.08;15.95;;;11.00;99.90;;;;;;4988542;28;20495;-73
2022/09/26 13:40:27;;;;;;;16.65;15.75;;;11.00;99.90;;;;;;5009818;28;20389;-73
2022/09/26 13:43:18;;;;;;;16.83;15.82;;;10.90;99.90;;;;;;5011728;28;20140;-74
2022/09/26 13:45:49;;;;;;;16.52;15.63;;;10.90;99.90;;;;;;4990674;28;20119;-73
2022/09/26 13:48:25;;;;;;;15.85;14.80;;;10.90;99.90;;;;;;5003072;28;20072;-74